createdAt,value
2023-06-10T00:01:01.150Z,266.45
2023-06-10T00:03:27.996Z,282.17
2023-06-10T00:05:54.719Z,293.83
2023-06-10T00:08:21.137Z,269.08
2023-06-10T00:10:47.668Z,298.80
2023-06-10T00:13:14.079Z,304.90
2023-06-10T00:15:40.581Z,305.50
2023-06-10T00:18:07.163Z,292.25
2023-06-10T00:20:33.631Z,270.92
2023-06-10T00:23:00.077Z,263.08
2023-06-10T00:25:26.564Z,307.70
2023-06-10T00:27:52.961Z,274.33
2023-06-10T00:30:19.328Z,266.85
2023-06-10T00:32:46.401Z,238.85
2023-06-10T00:35:13.035Z,235.48
2023-06-10T00:37:39.714Z,297.40
2023-06-10T00:40:06.576Z,254.97
2023-06-10T00:42:33.589Z,255.43
2023-06-10T00:45:00.021Z,240.07
2023-06-10T00:47:26.842Z,243.05
2023-06-10T00:49:53.307Z,231.45
2023-06-10T00:52:20.607Z,198.97
2023-06-10T00:54:47.231Z,217.38
2023-06-10T00:57:13.636Z,204.27
2023-06-10T00:59:40.601Z,204.82
2023-06-10T01:02:07.176Z,221.93
2023-06-10T01:04:34.703Z,220.00
2023-06-10T01:07:04.243Z,207.20
2023-06-10T01:09:38.852Z,210.13
2023-06-10T01:12:17.763Z,196.95
2023-06-10T01:14:44.353Z,206.18
2023-06-10T01:17:11.058Z,184.87
2023-06-10T01:19:37.828Z,182.32
2023-06-10T01:22:04.751Z,195.45
2023-06-10T01:24:31.167Z,229.75
2023-06-10T01:27:00.029Z,212.48
2023-06-10T01:29:36.472Z,206.97
2023-06-10T01:32:05.553Z,208.88
2023-06-10T01:34:32.238Z,190.43
2023-06-10T01:36:59.304Z,186.38
2023-06-10T01:39:26.333Z,206.27
2023-06-10T01:41:53.421Z,175.97
2023-06-10T01:44:20.841Z,183.15
2023-06-10T01:46:47.282Z,172.52
2023-06-10T01:49:13.725Z,172.85
2023-06-10T01:51:40.411Z,183.07
2023-06-10T01:54:06.980Z,179.90
2023-06-10T01:56:33.677Z,176.45
2023-06-10T01:59:00.149Z,190.55
2023-06-10T02:01:27.125Z,214.35
2023-06-10T02:03:53.845Z,194.73
2023-06-10T02:06:20.774Z,222.10
2023-06-10T02:08:47.569Z,244.10
2023-06-10T02:11:14.033Z,217.45
2023-06-10T02:13:40.469Z,244.20
2023-06-10T02:16:06.950Z,231.88
2023-06-10T02:18:33.814Z,253.70
2023-06-10T02:21:00.295Z,247.43
2023-06-10T02:23:26.725Z,251.25
2023-06-10T02:25:53.137Z,228.88
2023-06-10T02:28:19.649Z,226.55
2023-06-10T02:30:46.032Z,250.80
2023-06-10T02:33:12.472Z,248.85
2023-06-10T02:35:39.536Z,244.05
2023-06-10T02:38:06.047Z,228.25
2023-06-10T02:40:32.503Z,243.35
2023-06-10T02:42:59.203Z,244.80
2023-06-10T02:45:26.112Z,230.68
2023-06-10T02:47:52.583Z,242.43
2023-06-10T02:50:19.272Z,264.33
2023-06-10T02:52:45.658Z,269.63
2023-06-10T02:55:12.208Z,251.33
2023-06-10T02:57:38.783Z,274.92
2023-06-10T03:00:05.458Z,258.13
2023-06-10T03:02:31.963Z,257.70
2023-06-10T03:04:58.541Z,246.32
2023-06-10T03:07:25.117Z,222.63
2023-06-10T03:09:51.530Z,224.18
2023-06-10T03:12:18.012Z,172.68
2023-06-10T03:14:44.409Z,147.85
2023-06-10T03:17:10.824Z,142.43
2023-06-10T03:19:37.368Z,142.93
2023-06-10T03:22:10.507Z,187.85
2023-06-10T03:24:37.071Z,172.27
2023-06-10T03:27:03.672Z,155.38
2023-06-10T03:29:30.053Z,168.70
2023-06-10T03:31:56.532Z,159.43
2023-06-10T03:34:23.652Z,135.60
2023-06-10T03:36:50.124Z,138.57
2023-06-10T03:39:16.501Z,66.95
2023-06-10T03:41:42.985Z,60.97
2023-06-10T03:44:09.385Z,74.20
2023-06-10T03:46:35.800Z,60.97
2023-06-10T03:49:02.241Z,58.50
2023-06-10T03:51:28.638Z,60.05
2023-06-10T03:53:55.035Z,61.22
2023-06-10T03:56:21.526Z,58.53
2023-06-10T03:58:48.022Z,50.50
2023-06-10T04:01:14.460Z,51.08
2023-06-10T04:03:40.977Z,45.65
2023-06-10T04:06:08.405Z,124.20
2023-06-10T04:08:34.890Z,89.73
2023-06-10T04:11:01.385Z,77.22
2023-06-10T04:13:27.779Z,76.25
2023-06-10T04:15:54.421Z,94.53
2023-06-10T04:18:21.043Z,56.80
2023-06-10T04:20:47.516Z,57.83
2023-06-10T04:23:13.959Z,55.40
2023-06-10T04:25:40.384Z,47.22
2023-06-10T04:28:06.782Z,41.15
2023-06-10T04:30:33.179Z,62.80
2023-06-10T04:32:59.699Z,34.17
2023-06-10T04:35:26.137Z,97.22
2023-06-10T04:37:52.531Z,64.18
2023-06-10T04:40:19.002Z,45.85
2023-06-10T04:42:45.401Z,26.20
2023-06-10T04:45:12.308Z,28.07
2023-06-10T04:47:39.121Z,33.05
2023-06-10T04:50:05.771Z,31.95
2023-06-10T04:52:32.162Z,20.67
2023-06-10T04:54:59.394Z,26.77
2023-06-10T04:57:25.930Z,22.97
2023-06-10T04:59:52.453Z,22.75
2023-06-10T05:02:19.054Z,18.63
2023-06-10T05:04:45.625Z,20.15
2023-06-10T05:07:12.088Z,18.20
2023-06-10T05:09:38.530Z,15.23
2023-06-10T05:12:05.497Z,13.52
2023-06-10T05:14:31.888Z,16.65
2023-06-10T05:16:58.337Z,20.40
2023-06-10T05:19:24.747Z,19.45
2023-06-10T05:21:51.157Z,20.07
2023-06-10T05:24:17.796Z,23.40
2023-06-10T05:26:44.259Z,23.45
2023-06-10T05:29:10.669Z,24.13
2023-06-10T05:31:37.386Z,21.20
2023-06-10T05:34:03.825Z,16.03
2023-06-10T05:36:30.205Z,13.05
2023-06-10T05:38:56.647Z,21.63
2023-06-10T05:41:23.093Z,13.63
2023-06-10T05:43:49.651Z,13.63
2023-06-10T05:46:16.319Z,14.90
2023-06-10T05:48:42.814Z,12.98
2023-06-10T05:51:09.236Z,12.85
2023-06-10T05:53:35.680Z,14.82
2023-06-10T05:56:02.118Z,18.05
2023-06-10T05:58:28.543Z,15.43
2023-06-10T06:00:55.017Z,19.80
2023-06-10T06:03:21.514Z,23.33
2023-06-10T06:05:48.326Z,15.63
2023-06-10T06:08:14.796Z,16.40
2023-06-10T06:10:41.282Z,14.53
2023-06-10T06:13:07.700Z,14.60
2023-06-10T06:15:34.134Z,16.65
2023-06-10T06:18:00.652Z,16.25
2023-06-10T06:20:27.110Z,18.98
2023-06-10T06:22:53.615Z,15.13
2023-06-10T06:25:20.078Z,17.80
2023-06-10T06:27:46.564Z,18.52
2023-06-10T06:30:13.165Z,15.77
2023-06-10T06:32:39.575Z,12.93
2023-06-10T06:35:06.324Z,13.97
2023-06-10T06:37:32.952Z,13.27
2023-06-10T06:40:01.483Z,14.10
2023-06-10T06:42:29.561Z,14.80
2023-06-10T06:44:56.157Z,19.80
2023-06-10T06:47:22.647Z,18.17
2023-06-10T06:49:49.324Z,16.77
2023-06-10T06:52:16.327Z,15.20
2023-06-10T06:54:42.690Z,22.70
2023-06-10T06:57:09.097Z,17.02
2023-06-10T06:59:35.772Z,20.70
2023-06-10T07:02:02.199Z,13.90
2023-06-10T07:04:28.616Z,13.70
2023-06-10T07:06:55.111Z,15.68
2023-06-10T07:09:21.491Z,16.35
2023-06-10T07:11:47.889Z,15.30
2023-06-10T07:14:14.400Z,12.23
2023-06-10T07:16:40.809Z,18.00
2023-06-10T07:19:07.233Z,14.25
2023-06-10T07:21:34.268Z,21.15
2023-06-10T07:24:01.157Z,14.77
2023-06-10T07:26:27.661Z,12.10
2023-06-10T07:28:54.097Z,13.98
2023-06-10T07:31:20.551Z,16.75
2023-06-10T07:33:47.706Z,14.90
2023-06-10T07:36:14.896Z,23.63
2023-06-10T07:38:41.313Z,13.75
2023-06-10T07:41:07.719Z,15.70
2023-06-10T07:43:34.180Z,17.35
2023-06-10T07:46:00.750Z,13.57
2023-06-10T07:48:27.240Z,84.77
2023-06-10T07:50:53.697Z,33.78
2023-06-10T07:53:20.122Z,18.15
2023-06-10T07:55:46.579Z,12.20
2023-06-10T07:58:13.096Z,11.85
2023-06-10T08:00:39.475Z,11.60
2023-06-10T08:03:05.915Z,11.63
2023-06-10T08:05:32.451Z,14.43
2023-06-10T08:08:00.709Z,15.02
2023-06-10T08:10:28.441Z,13.52
2023-06-10T08:12:54.919Z,12.37
2023-06-10T08:15:21.398Z,10.45
2023-06-10T08:17:47.828Z,12.93
2023-06-10T08:20:14.330Z,12.63
2023-06-10T08:22:40.723Z,11.88
2023-06-10T08:25:07.477Z,12.50
2023-06-10T08:27:34.126Z,13.82
2023-06-10T08:30:00.673Z,11.55
2023-06-10T08:32:27.343Z,11.43
2023-06-10T08:34:54.313Z,12.25
2023-06-10T08:37:20.689Z,12.07
2023-06-10T08:39:47.087Z,12.25
2023-06-10T08:42:19.616Z,10.98
2023-06-10T08:44:47.072Z,10.88
2023-06-10T08:47:17.720Z,14.93
2023-06-10T08:49:45.257Z,9.43
2023-06-10T08:52:14.978Z,11.23
2023-06-10T08:54:43.509Z,12.50
2023-06-10T08:57:10.040Z,12.48
2023-06-10T08:59:37.628Z,8.88
2023-06-10T09:02:05.587Z,9.50
2023-06-10T09:04:32.434Z,9.35
2023-06-10T09:06:59.789Z,10.13
2023-06-10T09:09:27.116Z,9.18
2023-06-10T09:11:53.644Z,12.75
2023-06-10T09:14:20.059Z,9.43
2023-06-10T09:16:46.469Z,10.40
2023-06-10T09:19:12.948Z,8.73
2023-06-10T09:21:39.338Z,11.05
2023-06-10T09:24:06.337Z,12.23
2023-06-10T09:26:32.832Z,9.67
2023-06-10T09:29:05.881Z,11.13
2023-06-10T09:31:32.780Z,18.65
2023-06-10T09:34:06.312Z,9.60
2023-06-10T09:36:33.952Z,13.15
2023-06-10T09:39:00.354Z,11.73
2023-06-10T09:41:45.870Z,10.88
2023-06-10T09:44:15.941Z,11.23
2023-06-10T09:46:43.021Z,8.98
2023-06-10T09:49:09.658Z,9.60
2023-06-10T09:51:36.113Z,10.83
2023-06-10T09:54:05.470Z,8.38
2023-06-10T09:56:35.873Z,11.88
2023-06-10T09:59:02.569Z,15.13
2023-06-10T10:01:29.011Z,12.80
2023-06-10T10:03:55.533Z,11.97
2023-06-10T10:06:22.127Z,9.10
2023-06-10T10:08:50.362Z,9.52
2023-06-10T10:11:21.601Z,10.35
2023-06-10T10:13:48.989Z,11.23
2023-06-10T10:16:16.487Z,9.73
2023-06-10T10:18:47.177Z,13.50
2023-06-10T10:21:14.251Z,14.20
2023-06-10T10:23:53.693Z,10.02
2023-06-10T10:26:22.035Z,10.30
2023-06-10T10:28:52.453Z,10.57
2023-06-10T10:31:20.223Z,12.80
2023-06-10T10:33:55.262Z,11.23
2023-06-10T10:36:21.869Z,9.80
2023-06-10T10:38:51.685Z,11.68
2023-06-10T10:41:19.945Z,11.03
2023-06-10T10:43:47.465Z,11.13
2023-06-10T10:46:15.610Z,13.02
2023-06-10T10:48:42.260Z,12.82
2023-06-10T10:51:09.174Z,14.13
2023-06-10T10:53:37.715Z,11.37
2023-06-10T10:56:08.035Z,13.35
2023-06-10T10:58:34.570Z,12.55
2023-06-10T11:01:01.136Z,11.85
2023-06-10T11:03:31.104Z,13.20
2023-06-10T11:06:00.429Z,14.13
2023-06-10T11:08:29.776Z,11.40
2023-06-10T11:10:56.272Z,13.45
2023-06-10T11:13:23.454Z,12.40
2023-06-10T11:15:50.831Z,10.70
2023-06-10T11:18:23.160Z,11.23
2023-06-10T11:20:49.701Z,10.50
2023-06-10T11:23:28.376Z,11.35
2023-06-10T11:26:13.313Z,10.60
2023-06-10T11:28:53.412Z,13.00
2023-06-10T11:31:20.641Z,11.90
2023-06-10T11:34:07.329Z,13.00
2023-06-10T11:36:41.244Z,11.40
2023-06-10T11:39:07.871Z,11.73
2023-06-10T11:41:35.196Z,11.82
2023-06-10T11:44:20.678Z,11.97
2023-06-10T11:46:48.831Z,10.82
2023-06-10T11:49:15.304Z,12.23
2023-06-10T11:51:42.127Z,13.63
2023-06-10T11:54:11.865Z,14.80
2023-06-10T11:56:38.278Z,9.37
2023-06-10T11:59:05.396Z,9.15
2023-06-10T12:01:32.604Z,9.98
2023-06-10T12:03:58.953Z,10.55
2023-06-10T12:06:25.628Z,12.45
2023-06-10T12:08:52.021Z,10.43
2023-06-10T12:11:18.471Z,10.40
2023-06-10T12:13:48.661Z,8.82
2023-06-10T12:16:15.217Z,13.65
2023-06-10T12:18:42.954Z,10.52
2023-06-10T12:21:18.570Z,8.60
2023-06-10T12:24:03.226Z,10.32
2023-06-10T12:26:39.857Z,8.10
2023-06-10T12:29:18.566Z,10.15
2023-06-10T12:31:53.923Z,10.05
2023-06-10T12:34:20.394Z,10.33
2023-06-10T12:36:50.265Z,11.55
2023-06-10T12:39:16.761Z,9.32
2023-06-10T12:41:48.316Z,8.85
2023-06-10T12:44:14.712Z,8.88
2023-06-10T12:46:41.148Z,11.97
2023-06-10T12:49:07.547Z,12.20
2023-06-10T12:51:33.932Z,9.90
2023-06-10T12:54:00.411Z,10.55
2023-06-10T12:56:26.904Z,12.35
2023-06-10T12:58:53.273Z,13.87
2023-06-10T13:01:19.796Z,10.55
2023-06-10T13:03:46.223Z,11.68
2023-06-10T13:06:12.879Z,12.07
2023-06-10T13:08:39.319Z,9.80
2023-06-10T13:11:05.689Z,12.60
2023-06-10T13:13:33.187Z,10.93
2023-06-10T13:15:59.595Z,13.02
2023-06-10T13:18:25.994Z,10.70
2023-06-10T13:20:52.384Z,11.95
2023-06-10T13:23:18.874Z,12.90
2023-06-10T13:25:45.256Z,8.77
2023-06-10T13:28:11.649Z,11.25
2023-06-10T13:30:38.201Z,11.30
2023-06-10T13:33:04.667Z,12.20
2023-06-10T13:35:31.076Z,10.33
2023-06-10T13:37:57.530Z,12.18
2023-06-10T13:40:23.909Z,9.35
2023-06-10T13:42:50.301Z,11.15
2023-06-10T13:45:17.013Z,15.32
2023-06-10T13:47:43.427Z,12.83
2023-06-10T13:50:10.016Z,15.70
2023-06-10T13:52:36.512Z,12.65
2023-06-10T13:55:02.957Z,11.10
2023-06-10T13:57:29.371Z,10.23
2023-06-10T13:59:55.836Z,13.20
2023-06-10T14:02:22.337Z,11.48
2023-06-10T14:04:49.515Z,9.93
2023-06-10T14:07:16.000Z,8.48
2023-06-10T14:09:42.434Z,13.27
2023-06-10T14:12:08.946Z,10.57
2023-06-10T14:14:35.395Z,11.00
2023-06-10T14:17:01.925Z,14.52
2023-06-10T14:19:28.400Z,10.82
2023-06-10T14:21:54.866Z,12.52
2023-06-10T14:24:21.364Z,13.50
2023-06-10T14:26:47.948Z,12.65
2023-06-10T14:29:14.518Z,13.40
2023-06-10T14:31:41.335Z,12.95
2023-06-10T14:34:07.756Z,14.32
2023-06-10T14:36:34.440Z,13.07
2023-06-10T14:39:00.840Z,13.90
2023-06-10T14:41:27.254Z,12.25
2023-06-10T14:43:53.783Z,9.35
2023-06-10T14:46:20.208Z,12.48
2023-06-10T14:48:46.593Z,16.23
2023-06-10T14:51:13.108Z,12.50
2023-06-10T14:53:39.536Z,11.95
2023-06-10T14:56:05.961Z,10.00
2023-06-10T14:58:32.560Z,12.70
2023-06-10T15:00:59.241Z,14.17
2023-06-10T15:03:25.694Z,13.23
2023-06-10T15:05:52.131Z,13.50
2023-06-10T15:08:18.580Z,11.40
2023-06-10T15:10:44.994Z,16.60
2023-06-10T15:13:11.479Z,13.93
2023-06-10T15:15:37.896Z,10.90
2023-06-10T15:18:04.446Z,14.15
2023-06-10T15:20:31.083Z,10.32
2023-06-10T15:22:57.469Z,10.63
2023-06-10T15:27:53.238Z,13.05
2023-06-10T15:30:19.617Z,13.35
2023-06-10T15:32:46.054Z,12.65
2023-06-10T15:35:12.809Z,14.30
2023-06-10T15:37:39.460Z,13.67
2023-06-10T15:40:06.269Z,11.77
2023-06-10T15:42:32.827Z,11.23
2023-06-10T15:44:59.236Z,14.52
2023-06-10T15:47:25.634Z,12.32
2023-06-10T15:49:52.105Z,14.20
2023-06-10T15:52:18.512Z,16.95
2023-06-10T15:54:44.909Z,17.52
2023-06-10T15:57:11.354Z,11.38
2023-06-10T15:59:37.758Z,19.27
2023-06-10T16:02:04.361Z,19.27
2023-06-10T16:04:30.818Z,15.57
2023-06-10T16:06:57.280Z,15.77
2023-06-10T16:09:23.758Z,24.27
2023-06-10T16:11:50.202Z,23.02
2023-06-10T16:14:16.584Z,26.93
2023-06-10T16:16:43.038Z,35.25
2023-06-10T16:19:09.522Z,36.63
2023-06-10T16:21:35.927Z,41.15
2023-06-10T16:24:02.359Z,45.17
2023-06-10T16:26:28.925Z,51.50
2023-06-10T16:28:55.358Z,53.42
2023-06-10T16:31:21.838Z,62.65
2023-06-10T16:33:48.331Z,64.55
2023-06-10T16:36:14.738Z,69.78
2023-06-10T16:38:41.165Z,75.50
2023-06-10T16:41:07.625Z,80.35
2023-06-10T16:43:34.017Z,86.10
2023-06-10T16:46:00.432Z,89.65
2023-06-10T16:48:26.922Z,92.43
2023-06-10T16:50:53.404Z,100.47
2023-06-10T16:53:19.796Z,107.10
2023-06-10T16:55:46.229Z,104.43
2023-06-10T16:58:12.627Z,104.43
2023-06-10T17:00:39.116Z,107.80
2023-06-10T17:03:05.732Z,107.77
2023-06-10T17:05:32.440Z,116.32
2023-06-10T17:07:58.943Z,117.22
2023-06-10T17:10:25.425Z,117.25
2023-06-10T17:12:51.816Z,106.90
2023-06-10T17:15:18.307Z,114.97
2023-06-10T17:17:44.899Z,116.25
2023-06-10T17:20:11.671Z,117.13
2023-06-10T17:22:38.055Z,119.18
2023-06-10T17:25:04.771Z,122.85
2023-06-10T17:27:31.185Z,120.93
2023-06-10T17:29:57.619Z,122.05
2023-06-10T17:32:24.169Z,124.10
2023-06-10T17:34:50.593Z,124.03
2023-06-10T17:37:16.979Z,125.50
2023-06-10T17:39:43.430Z,120.70
2023-06-10T17:42:09.844Z,118.35
2023-06-10T17:44:36.258Z,124.85
2023-06-10T17:47:03.024Z,134.35
2023-06-10T17:49:33.137Z,132.85
2023-06-10T17:51:59.883Z,135.83
2023-06-10T17:54:26.328Z,131.40
2023-06-10T17:56:52.720Z,137.68
2023-06-10T17:59:19.103Z,129.25
2023-06-10T18:01:45.554Z,132.18
2023-06-10T18:04:12.105Z,130.33
2023-06-10T18:06:38.916Z,133.85
2023-06-10T18:09:05.607Z,125.28
2023-06-10T18:11:32.195Z,98.65
2023-06-10T18:13:58.604Z,83.65
2023-06-10T18:16:25.206Z,62.83
2023-06-10T18:18:51.644Z,70.50
2023-06-10T18:21:18.136Z,75.32
2023-06-10T18:23:44.673Z,76.22
2023-06-10T18:26:11.281Z,70.97
2023-06-10T18:28:37.684Z,76.17
2023-06-10T18:31:04.712Z,77.25
2023-06-10T18:33:31.151Z,80.90
2023-06-10T18:35:57.595Z,79.28
2023-06-10T18:38:24.713Z,83.13
2023-06-10T18:40:51.099Z,82.37
2023-06-10T18:43:17.478Z,87.68
2023-06-10T18:45:43.962Z,88.75
2023-06-10T18:48:10.702Z,84.53
2023-06-10T18:50:37.108Z,87.32
2023-06-10T18:53:03.552Z,88.87
2023-06-10T18:55:32.520Z,89.72
2023-06-10T18:57:59.742Z,90.88
2023-06-10T19:00:26.252Z,93.80
2023-06-10T19:02:52.796Z,88.25
2023-06-10T19:05:19.439Z,84.40
2023-06-10T19:07:46.061Z,84.35
2023-06-10T19:10:12.478Z,86.45
2023-06-10T19:12:38.882Z,91.60
2023-06-10T19:15:05.609Z,94.82
2023-06-10T19:17:32.097Z,96.53
2023-06-10T19:19:58.518Z,92.63
2023-06-10T19:22:25.711Z,95.68
2023-06-10T19:25:02.281Z,91.68
2023-06-10T19:27:29.105Z,88.40
2023-06-10T19:29:56.393Z,84.37
2023-06-10T19:32:22.824Z,77.90
2023-06-10T19:34:49.350Z,79.97
2023-06-10T19:37:15.906Z,78.07
2023-06-10T19:39:42.303Z,76.22
2023-06-10T19:42:11.439Z,76.73
2023-06-10T19:44:39.237Z,73.35
2023-06-10T19:47:05.909Z,77.25
2023-06-10T19:49:32.839Z,97.10
2023-06-10T19:51:59.236Z,149.55
2023-06-10T19:54:25.632Z,146.23
2023-06-10T19:56:52.072Z,513.35
2023-06-10T19:59:18.458Z,408.38
2023-06-10T20:01:44.874Z,232.88
2023-06-10T20:04:11.421Z,201.38
2023-06-10T20:06:37.944Z,364.43
2023-06-10T20:09:04.366Z,514.95
2023-06-10T20:11:30.793Z,421.35
2023-06-10T20:13:57.204Z,380.83
2023-06-10T20:16:23.681Z,330.40
2023-06-10T20:18:51.008Z,361.47
2023-06-10T20:21:19.824Z,268.50
2023-06-10T20:23:47.086Z,181.43
2023-06-10T20:26:13.720Z,260.02
2023-06-10T20:28:40.454Z,386.60
2023-06-10T20:31:06.979Z,399.33
2023-06-10T20:33:33.384Z,374.65
2023-06-10T20:35:59.770Z,305.73
2023-06-10T20:38:26.183Z,306.85
2023-06-10T20:40:52.593Z,230.10
2023-06-10T20:43:19.009Z,292.40
2023-06-10T20:45:45.673Z,503.00
2023-06-10T20:48:12.199Z,499.77
2023-06-10T20:50:38.624Z,510.60
2023-06-10T20:53:05.108Z,461.13
2023-06-10T20:55:31.514Z,381.97
2023-06-10T20:57:57.942Z,444.58
2023-06-10T21:00:24.374Z,497.77
2023-06-10T21:02:50.813Z,528.67
2023-06-10T21:05:18.061Z,509.38
2023-06-10T21:07:44.646Z,444.87
2023-06-10T21:10:11.412Z,485.58
2023-06-10T21:12:38.006Z,483.83
2023-06-10T21:15:05.000Z,424.60
2023-06-10T21:17:31.460Z,549.85
2023-06-10T21:19:57.909Z,598.73
2023-06-10T21:22:24.376Z,444.75
2023-06-10T21:24:50.762Z,544.88
2023-06-10T21:27:17.185Z,430.67
2023-06-10T21:29:44.060Z,430.65
2023-06-10T21:32:11.248Z,540.83
2023-06-10T21:34:37.778Z,632.40
2023-06-10T21:37:04.419Z,347.20
2023-06-10T21:39:30.807Z,288.83
2023-06-10T21:41:57.207Z,357.80
2023-06-10T21:44:24.059Z,428.47
2023-06-10T21:46:50.463Z,381.23
2023-06-10T21:49:16.918Z,526.90
2023-06-10T21:51:43.380Z,463.90
2023-06-10T21:54:09.760Z,359.05
2023-06-10T21:56:36.188Z,387.67
2023-06-10T21:59:02.637Z,108.55
2023-06-10T22:01:30.146Z,66.07
2023-06-10T22:03:56.769Z,73.70
2023-06-10T22:06:23.261Z,390.23
2023-06-10T22:08:49.977Z,540.80
2023-06-10T22:11:16.386Z,464.35
2023-06-10T22:13:43.062Z,522.67
2023-06-10T22:16:09.456Z,375.38
2023-06-10T22:18:35.852Z,384.25
2023-06-10T22:21:02.322Z,531.77
2023-06-10T22:23:28.726Z,390.33
2023-06-10T22:25:55.138Z,431.40
2023-06-10T22:28:21.582Z,471.05
2023-06-10T22:30:48.014Z,368.90
2023-06-10T22:33:14.462Z,359.93
2023-06-10T22:35:40.887Z,490.60
2023-06-10T22:38:07.414Z,489.88
2023-06-10T22:40:33.818Z,476.95
2023-06-10T22:43:00.297Z,477.38
2023-06-10T22:45:26.691Z,381.17
2023-06-10T22:47:53.161Z,357.45
2023-06-10T22:50:19.634Z,418.73
2023-06-10T22:52:46.036Z,379.20
2023-06-10T22:55:12.674Z,361.73
2023-06-10T22:57:39.473Z,229.93
2023-06-10T23:00:06.273Z,247.68
2023-06-10T23:02:32.762Z,261.83
2023-06-10T23:04:59.229Z,249.48
2023-06-10T23:07:26.667Z,261.65
2023-06-10T23:09:53.141Z,310.53
2023-06-10T23:12:19.554Z,284.48
2023-06-10T23:14:45.996Z,558.33
2023-06-10T23:17:12.396Z,562.55
2023-06-10T23:19:39.249Z,635.28
2023-06-10T23:22:05.666Z,195.27
2023-06-10T23:24:32.381Z,245.85
2023-06-10T23:27:02.253Z,205.80
2023-06-10T23:29:28.925Z,253.95
2023-06-10T23:31:55.657Z,283.63
2023-06-10T23:34:22.323Z,288.03
2023-06-10T23:36:48.769Z,304.48
2023-06-10T23:39:15.563Z,368.40
2023-06-10T23:41:42.523Z,334.95
2023-06-10T23:44:09.015Z,310.92
2023-06-10T23:46:35.944Z,311.63
2023-06-10T23:49:02.572Z,328.90
2023-06-10T23:51:28.980Z,345.13
2023-06-10T23:53:55.372Z,357.38
2023-06-10T23:56:21.809Z,370.17
2023-06-10T23:58:48.388Z,390.37
